Time;durP1;ratioP1;P1;durP2;ratioP2;P2;SDS_P1;SDS_P2;PMS_P1;PMS_P2;Temp;Humidity;BMP_temperature;BMP_pressure;BME280_temperature;BME280_humidity;BME280_pressure;Samples;Min_cycle;Max_cycle;Signal;HPM_P1;HPM_P2
2022/07/06 00:01:10;;;;;;;2.57;2.30;;;19.50;82.50;;;;;;6121651;23;20752;-90
2022/07/06 00:03:38;;;;;;;4.10;2.47;;;19.40;83.00;;;;;;6127018;23;20986;-90
2022/07/06 00:06:06;;;;;;;3.43;2.53;;;19.40;84.00;;;;;;6120937;23;20455;-90
2022/07/06 00:08:33;;;;;;;2.60;2.40;;;19.30;84.90;;;;;;6129315;23;20485;-90
2022/07/06 00:11:00;;;;;;;2.83;2.63;;;19.20;85.80;;;;;;6120832;23;20445;-90
2022/07/06 00:13:28;;;;;;;3.13;2.37;;;19.10;87.00;;;;;;6124253;23;21088;-90
2022/07/06 00:15:55;;;;;;;2.90;2.70;;;19.10;88.10;;;;;;6115588;23;20453;-89
2022/07/06 00:18:22;;;;;;;3.03;2.73;;;19.10;89.30;;;;;;6125271;23;20498;-89
2022/07/06 00:20:50;;;;;;;2.90;2.40;;;19.00;90.10;;;;;;6119627;23;20463;-90
2022/07/06 00:23:17;;;;;;;2.97;2.70;;;18.90;90.50;;;;;;6116324;23;20461;-90
2022/07/06 00:25:45;;;;;;;6.30;2.83;;;18.80;90.80;;;;;;6116015;23;20434;-90
2022/07/06 00:28:12;;;;;;;2.47;2.27;;;18.80;91.20;;;;;;6122895;23;20466;-90
2022/07/06 00:30:39;;;;;;;3.40;2.60;;;18.80;91.30;;;;;;6120202;23;20453;-89
2022/07/06 00:33:07;;;;;;;4.80;3.00;;;18.80;91.40;;;;;;6124512;23;20882;-90
2022/07/06 00:35:34;;;;;;;3.87;2.73;;;18.80;91.60;;;;;;6123453;23;20471;-89
2022/07/06 00:38:03;;;;;;;2.67;2.47;;;18.80;91.70;;;;;;6127377;23;20437;-90
2022/07/06 00:40:31;;;;;;;3.67;2.70;;;18.80;91.80;;;;;;6122737;23;20519;-90
2022/07/06 00:42:58;;;;;;;2.93;2.73;;;18.80;91.90;;;;;;6128340;23;20495;-90
2022/07/06 00:45:26;;;;;;;5.90;3.00;;;18.70;92.00;;;;;;6121359;23;20502;-89
2022/07/06 00:47:54;;;;;;;4.67;3.17;;;18.70;92.10;;;;;;6113419;23;20908;-90
2022/07/06 00:50:21;;;;;;;3.43;2.90;;;18.70;92.30;;;;;;6120619;23;20499;-89
2022/07/06 00:52:50;;;;;;;3.90;2.70;;;18.70;92.50;;;;;;6120790;23;20811;-90
2022/07/06 00:55:24;;;;;;;3.10;2.80;;;18.70;92.50;;;;;;6122868;23;20443;-90
2022/07/06 00:57:52;;;;;;;3.03;2.83;;;18.70;92.50;;;;;;6133067;23;20507;-90
2022/07/06 01:00:21;;;;;;;3.03;2.70;;;18.60;92.60;;;;;;6129692;23;20504;-90
2022/07/06 01:02:48;;;;;;;3.17;2.87;;;18.60;92.80;;;;;;6130411;23;20443;-89
2022/07/06 01:05:16;;;;;;;3.00;2.73;;;18.60;92.90;;;;;;6128177;23;20459;-90
2022/07/06 01:07:45;;;;;;;3.10;2.70;;;18.60;93.00;;;;;;6121993;23;20460;-89
2022/07/06 01:10:13;;;;;;;3.07;2.67;;;18.60;93.10;;;;;;6125454;23;20480;-90
2022/07/06 01:12:43;;;;;;;3.90;2.63;;;18.60;93.20;;;;;;6125093;23;20444;-90
2022/07/06 01:15:13;;;;;;;3.30;3.00;;;18.50;93.30;;;;;;6147002;23;20471;-88
2022/07/06 01:17:41;;;;;;;2.73;2.50;;;18.50;93.40;;;;;;6129064;23;20444;-90
2022/07/06 01:20:12;;;;;;;2.80;2.60;;;18.40;93.50;;;;;;6126221;23;20928;-90
2022/07/06 01:22:39;;;;;;;3.57;3.00;;;18.40;93.60;;;;;;6124734;23;21016;-90
2022/07/06 01:25:09;;;;;;;3.03;2.73;;;18.30;93.80;;;;;;6129491;23;20461;-89
2022/07/06 01:27:37;;;;;;;4.60;2.70;;;18.30;94.00;;;;;;6129347;23;20469;-89
2022/07/06 01:30:06;;;;;;;3.30;2.37;;;18.30;94.10;;;;;;6138701;23;20467;-89
2022/07/06 01:32:34;;;;;;;3.00;2.67;;;18.30;94.20;;;;;;6163059;23;20456;-89
2022/07/06 01:35:02;;;;;;;2.73;2.53;;;18.20;94.40;;;;;;6160718;23;20461;-89
2022/07/06 01:37:30;;;;;;;2.83;2.30;;;18.10;94.50;;;;;;6140530;23;20421;-89
2022/07/06 01:40:00;;;;;;;4.67;2.60;;;18.10;94.70;;;;;;6122922;23;20444;-89
2022/07/06 01:42:28;;;;;;;5.00;3.00;;;18.00;94.90;;;;;;6140942;23;20436;-88
2022/07/06 01:44:55;;;;;;;3.00;2.53;;;18.00;95.00;;;;;;6151518;23;20475;-89
2022/07/06 01:47:22;;;;;;;3.73;2.87;;;17.90;95.20;;;;;;6155125;23;20944;-89
2022/07/06 01:49:49;;;;;;;2.90;2.70;;;17.90;95.40;;;;;;6155237;23;20457;-89
2022/07/06 01:52:16;;;;;;;2.87;2.40;;;17.80;95.70;;;;;;6138080;23;20437;-90
2022/07/06 01:54:47;;;;;;;5.00;2.77;;;17.80;96.00;;;;;;6131667;23;20463;-89
2022/07/06 01:57:14;;;;;;;2.60;2.40;;;17.70;96.20;;;;;;6121654;23;20446;-89
2022/07/06 01:59:41;;;;;;;3.70;3.13;;;17.60;96.40;;;;;;6149804;23;20446;-89
2022/07/06 02:02:09;;;;;;;3.57;2.63;;;17.60;96.80;;;;;;6143113;23;20427;-89
2022/07/06 02:04:37;;;;;;;2.83;2.63;;;17.50;96.80;;;;;;6127574;23;20458;-89
2022/07/06 02:07:04;;;;;;;2.83;2.63;;;17.50;97.00;;;;;;6121515;23;20436;-90
2022/07/06 02:09:32;;;;;;;2.43;2.23;;;17.50;97.20;;;;;;6123199;23;20476;-89
2022/07/06 02:12:00;;;;;;;4.20;2.87;;;17.40;97.20;;;;;;6130545;23;20447;-89
2022/07/06 02:14:27;;;;;;;3.00;2.67;;;17.40;97.50;;;;;;6127194;23;20467;-89
2022/07/06 02:16:54;;;;;;;2.73;2.53;;;17.30;97.80;;;;;;6125388;23;20498;-88
2022/07/06 02:19:22;;;;;;;3.30;2.60;;;17.20;98.00;;;;;;6124663;23;20483;-89
2022/07/06 02:21:48;;;;;;;2.73;2.53;;;17.20;98.20;;;;;;6132875;23;20447;-89
2022/07/06 02:24:16;;;;;;;2.80;2.60;;;17.20;98.40;;;;;;6122965;23;20475;-89
2022/07/06 02:26:43;;;;;;;3.13;2.50;;;17.20;98.70;;;;;;6130634;23;20530;-89
2022/07/06 02:29:11;;;;;;;3.00;2.80;;;17.10;98.80;;;;;;6123889;23;20801;-88
2022/07/06 02:31:38;;;;;;;3.13;2.83;;;17.10;99.20;;;;;;6134541;23;20431;-89
2022/07/06 02:34:05;;;;;;;2.87;2.60;;;17.10;99.50;;;;;;6123071;23;20467;-89
2022/07/06 02:36:32;;;;;;;3.10;2.80;;;17.00;99.70;;;;;;6128017;23;20446;-88
2022/07/06 02:39:00;;;;;;;3.20;2.80;;;17.00;99.90;;;;;;6126191;23;20434;-89
2022/07/06 02:41:28;;;;;;;2.63;2.40;;;17.00;99.90;;;;;;6130414;23;20500;-89
2022/07/06 02:43:55;;;;;;;2.70;2.50;;;17.00;99.90;;;;;;6128902;23;21041;-89
2022/07/06 02:46:23;;;;;;;2.80;2.60;;;16.90;99.90;;;;;;6130747;23;20446;-89
2022/07/06 02:48:51;;;;;;;3.20;2.90;;;16.90;99.90;;;;;;6130029;23;20479;-89
2022/07/06 02:51:18;;;;;;;2.90;2.63;;;16.80;99.90;;;;;;6122679;23;20450;-88
2022/07/06 02:53:46;;;;;;;3.23;2.93;;;16.80;99.90;;;;;;6122035;23;20479;-89
2022/07/06 02:56:13;;;;;;;3.77;2.80;;;16.80;99.90;;;;;;6129850;23;20500;-89
2022/07/06 02:58:40;;;;;;;3.10;2.90;;;16.70;99.90;;;;;;6122322;23;20981;-89
2022/07/06 03:01:07;;;;;;;3.70;3.40;;;16.80;99.90;;;;;;6121002;23;20448;-89
2022/07/06 03:03:35;;;;;;;4.23;3.07;;;16.80;99.90;;;;;;6120720;23;20467;-89
2022/07/06 03:06:04;;;;;;;4.90;2.90;;;16.70;99.90;;;;;;6121376;23;20521;-89
2022/07/06 03:08:31;;;;;;;3.10;2.83;;;16.70;99.90;;;;;;6117557;23;20467;-89
2022/07/06 03:10:58;;;;;;;3.23;2.70;;;16.70;99.90;;;;;;6123452;23;20441;-89
2022/07/06 03:13:25;;;;;;;3.40;3.10;;;16.60;99.90;;;;;;6123689;23;20857;-90
2022/07/06 03:15:52;;;;;;;3.60;3.30;;;16.60;99.90;;;;;;6134863;23;20443;-89
2022/07/06 03:18:19;;;;;;;3.10;2.80;;;16.60;99.90;;;;;;6124254;23;20447;-90
2022/07/06 03:20:48;;;;;;;3.83;3.10;;;16.60;99.90;;;;;;6122640;23;20434;-89
2022/07/06 03:23:15;;;;;;;5.63;3.07;;;16.50;99.90;;;;;;6120674;23;20495;-89
2022/07/06 03:25:42;;;;;;;3.40;3.10;;;16.50;99.90;;;;;;6120511;23;20453;-89
2022/07/06 03:28:09;;;;;;;4.20;3.40;;;16.50;99.90;;;;;;6119673;23;20567;-89
2022/07/06 03:30:36;;;;;;;3.23;2.93;;;16.40;99.90;;;;;;6123611;23;20452;-89
2022/07/06 03:33:04;;;;;;;5.00;3.50;;;16.40;99.90;;;;;;6121883;23;20490;-89
2022/07/06 03:35:31;;;;;;;3.27;3.07;;;16.40;99.90;;;;;;6120899;23;20465;-89
2022/07/06 03:37:59;;;;;;;3.67;3.37;;;16.40;99.90;;;;;;6120727;23;20801;-88
2022/07/06 03:40:26;;;;;;;5.43;3.17;;;16.30;99.90;;;;;;6122931;23;20541;-90
2022/07/06 03:42:53;;;;;;;3.13;2.90;;;16.30;99.90;;;;;;6124167;23;20501;-88
2022/07/06 03:45:21;;;;;;;3.53;3.23;;;16.30;99.90;;;;;;6134025;23;20445;-90
2022/07/06 03:47:48;;;;;;;4.07;3.60;;;16.30;99.90;;;;;;6123411;23;20525;-89
2022/07/06 03:50:15;;;;;;;3.77;3.50;;;16.30;99.90;;;;;;6116169;23;20475;-89
2022/07/06 03:52:42;;;;;;;4.13;3.80;;;16.20;99.90;;;;;;6121966;23;20502;-89
2022/07/06 03:55:12;;;;;;;3.83;3.07;;;16.30;99.90;;;;;;6119988;23;20927;-82
2022/07/06 03:57:40;;;;;;;3.80;3.50;;;16.20;99.90;;;;;;6117138;23;20436;-82
2022/07/06 04:00:09;;;;;;;3.27;3.07;;;16.20;99.90;;;;;;6113296;23;20846;-82
2022/07/06 04:02:36;;;;;;;5.20;3.70;;;16.20;99.90;;;;;;6127778;23;20815;-82
2022/07/06 04:05:03;;;;;;;3.60;3.30;;;16.30;99.90;;;;;;6120147;23;20940;-81
2022/07/06 04:07:30;;;;;;;4.40;3.97;;;16.30;99.90;;;;;;6121369;23;20500;-81
2022/07/06 04:09:57;;;;;;;3.77;3.47;;;16.30;99.90;;;;;;6108426;23;20986;-83
2022/07/06 04:12:26;;;;;;;4.07;3.63;;;16.40;99.90;;;;;;6120251;23;20441;-82
2022/07/06 04:14:53;;;;;;;4.20;3.90;;;16.40;99.90;;;;;;6118718;23;21695;-80
2022/07/06 04:20:05;;;;;;;3.93;3.63;;;16.40;99.90;;;;;;6108005;23;20435;-81
2022/07/06 04:22:32;;;;;;;5.30;3.60;;;16.50;99.90;;;;;;6097940;23;20449;-80
2022/07/06 04:24:59;;;;;;;5.80;4.20;;;16.50;99.90;;;;;;6114373;23;20438;-86
2022/07/06 04:27:28;;;;;;;5.70;4.10;;;16.50;99.90;;;;;;6113399;23;20508;-87
2022/07/06 04:29:55;;;;;;;5.00;4.07;;;16.50;99.90;;;;;;6110491;23;20465;-86
2022/07/06 04:32:22;;;;;;;4.20;3.77;;;16.50;99.90;;;;;;6115130;23;20434;-86
2022/07/06 04:34:49;;;;;;;4.70;4.17;;;16.50;99.90;;;;;;6115788;23;20462;-85
2022/07/06 04:37:18;;;;;;;4.83;4.47;;;16.60;99.90;;;;;;6115144;23;20439;-86
2022/07/06 04:39:45;;;;;;;4.00;3.70;;;16.50;99.90;;;;;;6114737;23;20806;-86
2022/07/06 04:42:12;;;;;;;4.50;4.20;;;16.60;99.90;;;;;;6121206;23;20430;-85
2022/07/06 04:44:41;;;;;;;4.80;4.33;;;16.60;99.90;;;;;;6144724;23;20426;-86
2022/07/06 04:47:14;;;;;;;6.00;4.27;;;16.60;99.90;;;;;;6136501;23;20437;-85
2022/07/06 04:49:42;;;;;;;5.27;4.87;;;16.60;99.90;;;;;;6119074;23;20474;-85
2022/07/06 04:52:09;;;;;;;5.33;4.13;;;16.60;99.90;;;;;;6116860;23;20451;-84
2022/07/06 04:54:36;;;;;;;4.43;4.03;;;16.70;99.90;;;;;;6114561;23;20446;-86
2022/07/06 04:57:04;;;;;;;4.20;3.80;;;16.80;99.90;;;;;;6115221;23;20556;-86
2022/07/06 04:59:31;;;;;;;4.73;4.33;;;16.80;99.90;;;;;;6115627;23;20442;-84
2022/07/06 05:02:00;;;;;;;4.43;4.03;;;16.80;99.90;;;;;;6107125;23;20531;-83
2022/07/06 05:04:27;;;;;;;5.10;4.60;;;16.80;99.90;;;;;;6108185;23;20464;-83
2022/07/06 05:06:54;;;;;;;4.40;4.10;;;16.90;99.90;;;;;;6111552;23;20431;-81
2022/07/06 05:09:21;;;;;;;5.03;4.53;;;17.00;99.90;;;;;;6111404;23;20507;-87
2022/07/06 05:11:48;;;;;;;4.83;4.00;;;17.00;99.90;;;;;;6109589;23;20475;-95
2022/07/06 05:14:17;;;;;;;4.27;3.80;;;17.10;99.90;;;;;;6112665;23;20461;-90
2022/07/06 05:16:44;;;;;;;5.00;3.87;;;17.20;99.90;;;;;;6124951;23;20449;-87
2022/07/06 05:19:12;;;;;;;5.37;4.03;;;17.20;99.90;;;;;;6118193;23;20779;-87
2022/07/06 05:21:39;;;;;;;6.13;4.30;;;17.20;99.90;;;;;;6118533;23;20517;-87
2022/07/06 05:24:07;;;;;;;3.67;3.33;;;17.20;99.90;;;;;;6119331;23;20445;-87
2022/07/06 05:26:34;;;;;;;5.37;4.60;;;17.30;99.90;;;;;;6121989;23;20476;-87
2022/07/06 05:29:02;;;;;;;6.73;4.50;;;17.40;99.90;;;;;;6119756;23;20574;-87
2022/07/06 05:31:29;;;;;;;4.13;3.73;;;17.50;99.90;;;;;;6128122;23;20440;-87
2022/07/06 05:33:56;;;;;;;4.97;3.83;;;17.50;99.90;;;;;;6128073;23;20466;-87
2022/07/06 05:36:24;;;;;;;3.70;3.40;;;17.60;99.90;;;;;;6115815;23;20433;-87
2022/07/06 05:38:52;;;;;;;4.00;3.70;;;17.70;99.90;;;;;;6119520;23;20535;-87
2022/07/06 05:41:20;;;;;;;4.90;3.53;;;17.60;99.90;;;;;;6120206;23;20517;-87
2022/07/06 05:43:47;;;;;;;4.63;4.23;;;17.70;99.90;;;;;;6118246;23;20459;-87
2022/07/06 05:46:14;;;;;;;3.93;3.53;;;17.80;99.90;;;;;;6124435;23;20527;-87
2022/07/06 05:51:28;;;;;;;5.93;4.07;;;18.10;99.90;;;;;;6113007;23;20437;-88
2022/07/06 05:53:55;;;;;;;3.87;3.57;;;18.20;99.90;;;;;;6106938;23;20519;-88
2022/07/06 05:56:22;;;;;;;3.90;3.60;;;18.20;99.90;;;;;;6111394;23;20443;-88
2022/07/06 05:58:49;;;;;;;3.83;3.50;;;18.20;99.90;;;;;;6115433;23;20460;-88
2022/07/06 06:01:17;;;;;;;4.60;4.20;;;18.20;99.90;;;;;;6117631;23;20513;-87
2022/07/06 06:03:44;;;;;;;3.60;3.30;;;18.30;99.90;;;;;;6118398;23;20796;-88
2022/07/06 06:06:11;;;;;;;4.07;3.77;;;18.30;99.90;;;;;;6118719;23;20944;-88
2022/07/06 06:08:39;;;;;;;4.20;3.83;;;18.40;99.90;;;;;;6114182;23;20990;-88
2022/07/06 06:11:06;;;;;;;3.73;3.43;;;18.60;99.90;;;;;;6120721;23;20465;-88
2022/07/06 06:13:33;;;;;;;3.50;3.20;;;18.70;99.90;;;;;;6117563;23;20491;-88
2022/07/06 06:16:01;;;;;;;4.73;3.70;;;18.70;99.90;;;;;;6118267;23;20452;-87
2022/07/06 06:18:28;;;;;;;3.47;3.17;;;18.80;99.90;;;;;;6120021;23;20489;-88
2022/07/06 06:20:55;;;;;;;3.30;3.00;;;18.70;99.90;;;;;;6117424;23;20792;-88
2022/07/06 06:23:22;;;;;;;5.00;3.37;;;18.80;99.90;;;;;;6111116;23;20453;-87
2022/07/06 06:25:51;;;;;;;3.17;2.90;;;18.90;99.90;;;;;;6120308;23;20438;-87
2022/07/06 06:28:19;;;;;;;3.80;3.50;;;19.00;99.90;;;;;;6118940;23;20923;-87
2022/07/06 06:30:46;;;;;;;4.03;3.73;;;19.10;99.90;;;;;;6120890;23;20465;-88
2022/07/06 06:33:15;;;;;;;4.20;3.33;;;19.10;99.90;;;;;;6116628;23;20455;-88
2022/07/06 06:35:44;;;;;;;4.00;3.60;;;19.20;99.90;;;;;;6115881;23;20442;-87
2022/07/06 06:38:12;;;;;;;4.30;3.50;;;19.30;99.90;;;;;;6114418;23;20445;-88
2022/07/06 06:40:39;;;;;;;3.57;3.27;;;19.50;99.90;;;;;;6114790;23;20463;-88
2022/07/06 06:43:08;;;;;;;4.53;3.17;;;19.70;99.90;;;;;;6114630;23;20493;-88
2022/07/06 06:45:35;;;;;;;4.07;3.30;;;19.90;99.90;;;;;;6116722;23;20437;-85
2022/07/06 06:48:02;;;;;;;3.40;3.10;;;20.00;99.90;;;;;;6116367;23;20446;-85
2022/07/06 06:50:29;;;;;;;3.63;3.33;;;20.20;99.90;;;;;;6117445;23;20476;-85
2022/07/06 06:52:56;;;;;;;3.73;3.47;;;20.40;99.90;;;;;;6112676;23;20457;-86
2022/07/06 06:55:24;;;;;;;4.20;3.30;;;20.40;99.90;;;;;;6117216;23;20479;-86
2022/07/06 06:57:51;;;;;;;3.70;3.40;;;20.40;99.90;;;;;;6116892;23;20491;-86
2022/07/06 07:00:20;;;;;;;4.80;3.33;;;20.40;99.90;;;;;;6118118;23;20826;-85
2022/07/06 07:02:47;;;;;;;3.90;3.43;;;20.40;99.90;;;;;;6119485;23;20473;-86
2022/07/06 07:05:14;;;;;;;5.60;3.47;;;20.40;99.90;;;;;;6119876;23;20453;-85
2022/07/06 07:07:41;;;;;;;3.30;3.10;;;20.50;99.90;;;;;;6120091;23;20579;-85
2022/07/06 07:10:09;;;;;;;3.50;3.20;;;20.60;99.90;;;;;;6116969;23;20500;-85
2022/07/06 07:12:42;;;;;;;3.80;3.10;;;20.50;99.90;;;;;;6113695;23;20959;-85
2022/07/06 07:15:10;;;;;;;4.90;3.40;;;20.50;99.90;;;;;;6124933;23;20984;-86
2022/07/06 07:17:41;;;;;;;3.80;3.50;;;20.40;99.90;;;;;;6123287;23;20449;-86
2022/07/06 07:20:09;;;;;;;3.47;3.17;;;20.40;99.90;;;;;;6123395;23;20533;-86
2022/07/06 07:22:37;;;;;;;3.17;2.87;;;20.40;99.90;;;;;;6143372;23;20443;-85
2022/07/06 07:25:06;;;;;;;3.33;2.90;;;20.40;99.90;;;;;;6150221;23;20441;-86
2022/07/06 07:27:49;;;;;;;3.90;3.60;;;20.50;99.90;;;;;;6141532;23;20435;-85
2022/07/06 07:30:16;;;;;;;3.93;3.63;;;20.50;99.90;;;;;;6147433;23;20452;-86
2022/07/06 07:32:44;;;;;;;5.10;3.23;;;20.60;99.90;;;;;;6149760;23;20481;-86
2022/07/06 07:35:12;;;;;;;3.77;3.47;;;20.70;99.90;;;;;;6134641;23;20482;-86
2022/07/06 07:37:47;;;;;;;3.07;2.87;;;20.80;99.90;;;;;;6153985;23;20429;-86
2022/07/06 07:40:14;;;;;;;3.23;2.90;;;21.00;99.90;;;;;;6150468;23;20524;-85
2022/07/06 07:42:41;;;;;;;3.17;2.80;;;21.20;99.90;;;;;;6150098;23;20453;-85
2022/07/06 07:45:09;;;;;;;3.03;2.73;;;21.50;99.90;;;;;;6144133;23;20444;-85
2022/07/06 07:47:36;;;;;;;3.10;2.90;;;21.90;99.90;;;;;;6135594;23;20436;-86
2022/07/06 07:50:12;;;;;;;3.13;2.80;;;22.40;99.40;;;;;;6134042;23;20465;-86
2022/07/06 07:52:39;;;;;;;3.93;3.57;;;23.00;98.70;;;;;;6137073;23;20461;-88
2022/07/06 07:55:08;;;;;;;5.60;3.33;;;23.50;97.20;;;;;;6125479;23;20444;-88
2022/07/06 07:57:35;;;;;;;3.27;2.97;;;23.80;97.10;;;;;;6121995;23;20545;-87
2022/07/06 08:00:02;;;;;;;4.57;3.00;;;24.30;96.00;;;;;;6128330;23;20448;-88
2022/07/06 08:02:34;;;;;;;3.07;2.87;;;24.70;95.10;;;;;;6121273;23;20507;-88
2022/07/06 08:05:01;;;;;;;3.63;3.37;;;25.20;93.80;;;;;;6133723;23;20448;-88
2022/07/06 08:07:31;;;;;;;3.53;3.20;;;25.50;93.10;;;;;;6118729;23;20961;-88
2022/07/06 08:09:58;;;;;;;3.77;2.50;;;25.90;92.30;;;;;;6118833;23;20454;-87
2022/07/06 08:12:26;;;;;;;2.50;2.30;;;26.20;92.10;;;;;;6127211;23;20481;-88
2022/07/06 08:14:53;;;;;;;3.20;2.90;;;26.70;91.00;;;;;;6126409;23;20445;-88
2022/07/06 08:17:20;;;;;;;3.23;2.40;;;27.20;89.80;;;;;;6116218;23;20469;-88
2022/07/06 08:19:47;;;;;;;3.13;2.53;;;27.30;88.20;;;;;;6115562;23;20432;-88
2022/07/06 08:22:14;;;;;;;2.80;2.50;;;27.50;87.30;;;;;;6116689;23;20978;-88
2022/07/06 08:24:43;;;;;;;2.30;2.10;;;27.70;85.70;;;;;;6116682;23;20952;-87
2022/07/06 08:27:10;;;;;;;2.90;2.43;;;28.00;84.50;;;;;;6126206;23;20918;-88
2022/07/06 08:29:37;;;;;;;3.20;2.50;;;28.70;83.00;;;;;;6121037;23;20443;-88
2022/07/06 08:32:05;;;;;;;2.90;2.70;;;29.20;79.70;;;;;;6114795;23;20468;-88
2022/07/06 08:34:32;;;;;;;3.20;2.90;;;29.80;76.70;;;;;;6124509;23;20970;-89
2022/07/06 08:36:59;;;;;;;3.80;2.60;;;29.90;74.10;;;;;;6119687;23;20433;-88
2022/07/06 08:39:27;;;;;;;4.23;3.00;;;29.90;73.20;;;;;;6117305;23;20501;-89
2022/07/06 08:41:57;;;;;;;3.73;2.70;;;29.70;72.80;;;;;;6115077;23;20586;-90
2022/07/06 08:44:25;;;;;;;3.87;2.80;;;29.80;72.20;;;;;;6116487;23;20515;-87
2022/07/06 08:46:55;;;;;;;2.97;2.77;;;29.90;72.20;;;;;;6118299;23;20440;-87
2022/07/06 08:49:23;;;;;;;3.00;2.80;;;29.90;70.90;;;;;;6120212;23;20437;-88
2022/07/06 08:51:52;;;;;;;3.23;2.93;;;29.90;70.80;;;;;;6121253;23;20476;-87
2022/07/06 08:54:21;;;;;;;2.50;2.30;;;30.00;70.70;;;;;;6112540;23;20440;-87
2022/07/06 08:56:48;;;;;;;3.20;2.90;;;30.00;70.20;;;;;;6130590;23;20446;-87
2022/07/06 08:59:16;;;;;;;3.07;2.80;;;29.90;70.00;;;;;;6116737;23;20437;-87
2022/07/06 09:01:45;;;;;;;3.53;2.63;;;30.10;69.30;;;;;;6115113;23;20456;-87
2022/07/06 09:04:16;;;;;;;4.07;2.83;;;30.40;68.30;;;;;;6116536;23;20456;-87
2022/07/06 09:06:46;;;;;;;3.93;3.20;;;29.70;69.50;;;;;;6110337;23;20569;-87
2022/07/06 09:09:20;;;;;;;3.90;2.90;;;29.60;67.90;;;;;;6116484;23;20959;-87
2022/07/06 09:11:47;;;;;;;3.27;2.93;;;28.50;70.40;;;;;;6106820;23;20492;-88
2022/07/06 09:14:16;;;;;;;4.30;2.80;;;28.70;70.90;;;;;;6123377;23;20441;-88
2022/07/06 09:16:44;;;;;;;3.13;2.83;;;29.20;70.80;;;;;;6122972;23;20451;-87
2022/07/06 09:19:13;;;;;;;2.87;2.67;;;29.60;69.30;;;;;;6117187;23;20516;-87
2022/07/06 09:21:41;;;;;;;5.87;3.00;;;29.90;68.00;;;;;;6109625;23;20480;-87
2022/07/06 09:24:10;;;;;;;3.63;3.27;;;30.50;66.70;;;;;;6122746;23;20438;-88
2022/07/06 09:26:37;;;;;;;2.50;2.30;;;30.80;65.30;;;;;;6118021;23;20447;-87
2022/07/06 09:29:05;;;;;;;3.60;2.70;;;31.40;64.50;;;;;;6119194;23;20452;-87
2022/07/06 09:31:34;;;;;;;3.43;3.07;;;31.40;62.20;;;;;;6122286;23;20488;-87
2022/07/06 09:34:05;;;;;;;2.57;2.37;;;31.20;60.80;;;;;;6124113;23;20505;-87
2022/07/06 09:36:41;;;;;;;3.00;2.80;;;31.20;61.80;;;;;;6120047;23;20996;-87
2022/07/06 09:39:23;;;;;;;3.90;3.07;;;31.40;61.90;;;;;;6119669;23;20771;-87
2022/07/06 09:41:51;;;;;;;3.70;2.63;;;31.40;62.40;;;;;;6118928;23;20560;-87
2022/07/06 09:44:23;;;;;;;5.17;3.10;;;31.50;62.60;;;;;;6122411;23;20978;-87
2022/07/06 09:46:54;;;;;;;3.03;2.83;;;31.60;62.10;;;;;;6111548;23;20517;-88
2022/07/06 09:49:22;;;;;;;3.10;2.60;;;31.20;62.00;;;;;;6117971;23;20441;-87
2022/07/06 09:51:51;;;;;;;2.90;2.70;;;31.20;61.60;;;;;;6123120;23;20482;-87
2022/07/06 09:54:18;;;;;;;3.10;2.20;;;31.00;62.50;;;;;;6117324;23;20492;-87
2022/07/06 09:56:50;;;;;;;2.80;2.50;;;31.00;63.30;;;;;;6129789;23;20449;-88
2022/07/06 09:59:21;;;;;;;3.33;2.47;;;31.50;62.80;;;;;;6120965;23;20438;-87
2022/07/06 10:01:51;;;;;;;2.50;2.30;;;32.20;61.50;;;;;;6130788;23;20549;-88
2022/07/06 10:04:20;;;;;;;4.03;2.43;;;32.50;59.90;;;;;;6128256;23;20446;-87
2022/07/06 10:06:49;;;;;;;3.57;2.90;;;32.70;59.20;;;;;;6138114;23;21241;-87
2022/07/06 10:09:18;;;;;;;4.30;3.10;;;32.70;58.50;;;;;;6121244;23;20452;-87
2022/07/06 10:11:51;;;;;;;3.90;2.90;;;31.90;58.40;;;;;;6116233;23;20556;-88
2022/07/06 10:14:20;;;;;;;2.73;2.43;;;32.00;58.80;;;;;;6116072;23;20892;-88
2022/07/06 10:16:48;;;;;;;3.60;3.30;;;31.40;60.00;;;;;;6120943;23;20438;-88
2022/07/06 10:19:16;;;;;;;3.77;3.00;;;31.10;60.40;;;;;;6126878;23;20495;-87
2022/07/06 10:22:02;;;;;;;2.57;2.37;;;31.20;59.50;;;;;;6142977;23;20460;-86
2022/07/06 10:24:30;;;;;;;3.00;2.80;;;30.80;59.70;;;;;;6120898;23;21024;-87
2022/07/06 10:26:57;;;;;;;3.10;2.73;;;30.50;58.60;;;;;;6118699;23;20452;-86
2022/07/06 10:29:25;;;;;;;3.77;2.90;;;30.40;60.50;;;;;;6120544;23;21184;-87
2022/07/06 10:31:56;;;;;;;3.60;3.10;;;30.00;61.10;;;;;;6117047;23;20478;-87
2022/07/06 10:34:23;;;;;;;2.90;2.70;;;29.70;61.10;;;;;;6120746;23;20447;-87
2022/07/06 10:36:51;;;;;;;4.33;2.73;;;29.80;61.10;;;;;;6120062;23;20434;-87
2022/07/06 10:42:49;;;;;;;4.43;3.27;;;29.90;60.40;;;;;;6087731;23;20952;-87
2022/07/06 10:45:21;;;;;;;7.20;3.10;;;29.20;62.70;;;;;;6111988;23;20555;-87
2022/07/06 10:47:51;;;;;;;3.20;2.87;;;28.70;63.80;;;;;;6115711;23;20466;-87
2022/07/06 10:50:19;;;;;;;4.70;2.80;;;28.10;65.10;;;;;;6117805;23;20428;-87
2022/07/06 10:52:54;;;;;;;3.30;2.67;;;28.20;65.50;;;;;;6118577;23;21193;-87
2022/07/06 10:55:31;;;;;;;3.70;2.80;;;28.70;65.80;;;;;;6117114;23;20430;-87
2022/07/06 10:57:58;;;;;;;2.80;2.60;;;29.30;64.00;;;;;;6117524;23;20456;-87
2022/07/06 11:00:25;;;;;;;4.50;2.40;;;29.30;64.20;;;;;;6118782;23;20462;-87
2022/07/06 11:02:52;;;;;;;2.77;2.53;;;29.60;63.50;;;;;;6114791;23;20456;-87
2022/07/06 11:05:41;;;;;;;2.80;2.60;;;29.70;62.70;;;;;;6116993;23;20477;-87
2022/07/06 11:08:10;;;;;;;4.70;2.53;;;29.50;63.20;;;;;;6111660;23;20456;-87
2022/07/06 11:10:49;;;;;;;3.03;2.43;;;29.60;63.60;;;;;;6112255;23;20432;-86
2022/07/06 11:13:28;;;;;;;2.60;2.40;;;29.90;62.90;;;;;;6113675;23;20994;-86
2022/07/06 11:16:03;;;;;;;3.00;2.63;;;30.40;61.30;;;;;;6118730;23;21005;-87
2022/07/06 11:18:40;;;;;;;3.23;2.93;;;30.90;59.90;;;;;;6117529;23;20429;-87
2022/07/06 11:21:21;;;;;;;2.93;2.43;;;30.80;60.00;;;;;;6117859;23;20454;-87
2022/07/06 11:23:50;;;;;;;4.10;2.70;;;30.70;59.30;;;;;;6119333;23;20438;-86
2022/07/06 11:26:19;;;;;;;3.30;2.80;;;30.20;60.20;;;;;;6107412;23;20931;-87
2022/07/06 11:28:48;;;;;;;4.93;2.63;;;30.20;60.00;;;;;;6116984;23;20436;-87
2022/07/06 11:31:16;;;;;;;3.70;2.67;;;30.20;61.00;;;;;;6119028;23;20472;-87
2022/07/06 11:33:46;;;;;;;3.73;2.57;;;30.30;60.30;;;;;;6115976;23;20455;-87
2022/07/06 11:36:15;;;;;;;3.37;2.97;;;30.40;61.20;;;;;;6118531;23;20430;-86
2022/07/06 11:38:45;;;;;;;3.47;2.37;;;30.60;59.30;;;;;;6127733;23;20846;-87
2022/07/06 11:41:14;;;;;;;3.30;2.50;;;30.20;59.10;;;;;;6099522;23;20438;-87
2022/07/06 11:43:45;;;;;;;3.37;2.93;;;29.80;58.70;;;;;;6113066;23;20433;-87
2022/07/06 11:46:24;;;;;;;4.27;2.60;;;29.50;59.40;;;;;;6116010;23;20516;-87
2022/07/06 11:48:54;;;;;;;3.93;2.90;;;29.20;61.50;;;;;;6108362;23;21073;-87
2022/07/06 11:51:24;;;;;;;2.77;2.57;;;29.30;62.00;;;;;;6121132;23;20555;-87
2022/07/06 11:53:56;;;;;;;4.23;3.00;;;29.20;61.40;;;;;;6121299;23;20497;-87
2022/07/06 11:56:25;;;;;;;3.20;2.90;;;29.30;61.10;;;;;;6121396;23;20544;-87
2022/07/06 11:58:55;;;;;;;3.90;2.90;;;29.30;62.00;;;;;;6121110;23;20459;-87
2022/07/06 12:01:24;;;;;;;3.23;2.67;;;29.30;61.90;;;;;;6116772;23;20888;-87
2022/07/06 12:03:52;;;;;;;3.17;2.60;;;28.90;62.80;;;;;;6122991;23;20852;-87
2022/07/06 12:06:20;;;;;;;3.00;2.70;;;28.60;63.20;;;;;;6120266;23;20566;-87
2022/07/06 12:08:49;;;;;;;3.77;3.40;;;28.40;64.10;;;;;;6113802;23;20507;-87
2022/07/06 12:11:24;;;;;;;3.40;3.00;;;28.40;63.70;;;;;;6114450;23;20462;-87
2022/07/06 12:13:53;;;;;;;2.90;2.63;;;28.70;62.90;;;;;;6121492;23;21385;-86
2022/07/06 12:16:23;;;;;;;5.00;3.03;;;28.80;62.60;;;;;;6117749;23;20499;-86
2022/07/06 12:18:51;;;;;;;3.43;3.13;;;29.10;62.20;;;;;;6118270;23;20441;-86
2022/07/06 12:21:21;;;;;;;4.37;2.60;;;29.20;60.20;;;;;;6118739;23;20464;-86
2022/07/06 12:23:49;;;;;;;4.00;2.60;;;29.20;60.90;;;;;;6118477;23;20449;-86
2022/07/06 12:26:18;;;;;;;4.10;3.30;;;28.70;62.10;;;;;;6118473;23;20807;-86
2022/07/06 12:28:46;;;;;;;5.67;2.97;;;28.10;62.70;;;;;;6115090;23;20451;-86
2022/07/06 12:31:33;;;;;;;4.93;2.80;;;27.60;64.20;;;;;;6115291;23;20460;-87
2022/07/06 12:34:00;;;;;;;2.93;2.70;;;27.00;65.00;;;;;;6141838;23;20447;-86
2022/07/06 12:36:29;;;;;;;3.80;3.50;;;26.90;66.20;;;;;;6143131;23;20527;-88
2022/07/06 12:38:56;;;;;;;4.00;3.20;;;26.90;66.40;;;;;;6121171;23;20460;-88
2022/07/06 12:41:27;;;;;;;4.20;3.00;;;26.90;66.40;;;;;;6129595;23;20528;-87
2022/07/06 12:44:02;;;;;;;3.30;2.80;;;27.10;65.90;;;;;;6111051;23;20444;-87
2022/07/06 12:46:33;;;;;;;3.43;2.77;;;27.30;64.80;;;;;;6117032;23;20667;-87
2022/07/06 12:49:03;;;;;;;5.20;2.77;;;27.80;63.90;;;;;;6115233;23;20454;-88
2022/07/06 12:51:30;;;;;;;2.80;2.60;;;28.20;63.20;;;;;;6117609;23;20472;-87
2022/07/06 12:54:16;;;;;;;3.43;2.53;;;28.60;62.50;;;;;;6121850;23;20437;-87
2022/07/06 12:57:05;;;;;;;3.00;2.20;;;28.90;61.20;;;;;;6121715;23;20442;-87
2022/07/06 12:59:34;;;;;;;2.80;2.60;;;28.80;60.70;;;;;;6117834;23;20507;-87
2022/07/06 13:02:03;;;;;;;2.93;2.47;;;29.00;60.50;;;;;;6114479;23;20518;-87
2022/07/06 13:04:31;;;;;;;2.47;2.30;;;29.80;60.00;;;;;;6117120;23;20428;-88